Time;durP1;ratioP1;P1;durP2;ratioP2;P2;SDS_P1;SDS_P2;PMS_P1;PMS_P2;Temp;Humidity;BMP_temperature;BMP_pressure;BME280_temperature;BME280_humidity;BME280_pressure;Samples;Min_cycle;Max_cycle;Signal;HPM_P1;HPM_P2
2022/10/01 03:00:45;;;;;;;;;;;11.00;99.90;;;;;;5990992;23;20699;-67
2022/10/01 03:03:11;;;;;;;;;;;10.90;99.90;;;;;;4972179;28;20368;-68
2022/10/01 03:05:38;;;;;;;;;;;10.70;99.90;;;;;;4976195;28;20024;-68
2022/10/01 03:08:04;;;;;;;;;;;10.60;99.90;;;;;;4974926;28;19962;-68
2022/10/01 03:10:31;;;;;;;;;;;10.50;99.90;;;;;;4976142;28;19965;-67
2022/10/01 03:13:00;;;;;;;;;;;10.50;99.90;;;;;;4974518;28;20013;-68
2022/10/01 03:15:27;;;;;;;;;;;10.40;99.90;;;;;;4974632;28;19925;-67
2022/10/01 03:17:55;;;;;;;;;;;10.40;99.90;;;;;;4976034;28;19987;-67
2022/10/01 03:20:22;;;;;;;;;;;10.40;99.90;;;;;;4975361;28;19926;-69
2022/10/01 03:22:49;;;;;;;;;;;10.40;99.90;;;;;;4974449;28;19930;-67
2022/10/01 03:25:16;;;;;;;;;;;10.40;99.90;;;;;;4974712;28;19933;-67
2022/10/01 03:27:43;;;;;;;;;;;10.40;99.90;;;;;;4974605;28;19930;-69
2022/10/01 03:30:10;;;;;;;;;;;10.50;99.90;;;;;;4974143;28;19977;-68
2022/10/01 03:32:36;;;;;;;;;;;10.50;99.90;;;;;;4973966;28;19973;-67
2022/10/01 03:35:05;;;;;;;;;;;10.50;99.90;;;;;;4974434;28;19932;-68
2022/10/01 03:37:32;;;;;;;;;;;10.50;99.90;;;;;;4974572;28;19930;-68
2022/10/01 03:39:59;;;;;;;;;;;10.50;99.90;;;;;;4974102;28;19930;-68
2022/10/01 03:42:25;;;;;;;;;;;10.50;99.90;;;;;;4973953;28;19976;-68
2022/10/01 03:44:52;;;;;;;;;;;10.70;99.90;;;;;;4974209;28;20357;-67
2022/10/01 03:47:21;;;;;;;;;;;10.70;99.90;;;;;;4974305;28;19930;-67
2022/10/01 03:49:47;;;;;;;;;;;10.80;99.90;;;;;;4973901;28;19926;-67
2022/10/01 03:52:15;;;;;;;;;;;10.80;99.90;;;;;;4973784;28;20345;-71
2022/10/01 03:54:42;;;;;;;;;;;11.00;99.90;;;;;;4973795;28;20354;-71
2022/10/01 03:57:09;;;;;;;;;;;11.00;99.90;;;;;;4975234;28;20020;-68
2022/10/01 03:59:35;;;;;;;;;;;11.00;99.90;;;;;;4974051;28;20309;-69
2022/10/01 04:02:02;;;;;;;;;;;11.00;99.90;;;;;;4973303;28;19962;-69
2022/10/01 04:04:29;;;;;;;;;;;11.00;99.90;;;;;;4973303;28;19926;-73
2022/10/01 04:06:56;;;;;;;;;;;11.00;99.90;;;;;;4973866;28;19926;-69
2022/10/01 04:09:24;;;;;;;;;;;11.00;99.90;;;;;;4973376;28;19933;-68
2022/10/01 04:11:51;;;;;;;;;;;11.10;99.90;;;;;;4973738;28;19989;-68
2022/10/01 04:14:18;;;;;;;;;;;11.10;99.90;;;;;;4973507;28;19954;-69
2022/10/01 04:16:45;;;;;;;;;;;11.20;99.90;;;;;;4973782;28;19930;-68
2022/10/01 04:19:11;;;;;;;;;;;11.20;99.90;;;;;;4973430;28;19926;-71
2022/10/01 04:21:39;;;;;;;;;;;11.30;99.90;;;;;;4973645;28;19930;-68
2022/10/01 04:24:05;;;;;;;;;;;11.30;99.90;;;;;;4973109;28;20511;-66
2022/10/01 04:26:34;;;;;;;;;;;11.30;99.90;;;;;;4973551;28;19926;-69
2022/10/01 04:29:00;;;;;;;;;;;11.30;99.90;;;;;;4973335;28;19926;-68
2022/10/01 04:31:33;;;;;;;;;;;11.20;99.90;;;;;;4973450;28;19973;-69
2022/10/01 04:34:00;;;;;;;;;;;11.30;99.90;;;;;;4973063;28;20367;-68
2022/10/01 04:36:27;;;;;;;;;;;11.30;99.90;;;;;;4973390;28;19930;-71
2022/10/01 04:38:54;;;;;;;;;;;11.30;99.90;;;;;;4973131;28;19930;-68
2022/10/01 04:41:21;;;;;;;;;;;11.30;99.90;;;;;;4973237;28;19933;-69
2022/10/01 04:43:49;;;;;;;;;;;11.40;99.90;;;;;;4972889;28;20404;-69
2022/10/01 04:46:16;;;;;;;;;;;11.30;99.90;;;;;;4973181;28;19926;-67
2022/10/01 04:48:43;;;;;;;;;;;11.40;99.90;;;;;;4973208;28;19926;-69
2022/10/01 04:51:09;;;;;;;;;;;11.40;99.90;;;;;;4972649;28;19934;-69
2022/10/01 04:53:36;;;;;;;;;;;11.50;99.90;;;;;;4972957;28;19926;-70
2022/10/01 04:56:03;;;;;;;;;;;11.50;99.90;;;;;;4972993;28;19926;-69
2022/10/01 04:58:30;;;;;;;;;;;11.60;99.90;;;;;;4972956;28;19930;-72
2022/10/01 05:00:58;;;;;;;;;;;11.70;99.90;;;;;;4972257;28;19930;-68
2022/10/01 05:03:25;;;;;;;;;;;11.60;99.90;;;;;;4973182;28;20455;-68
2022/10/01 05:05:52;;;;;;;;;;;11.60;99.90;;;;;;4973729;28;19934;-69
2022/10/01 05:08:19;;;;;;;;;;;11.70;99.90;;;;;;4990291;28;19991;-69
2022/10/01 05:10:46;;;;;;;;;;;11.70;99.90;;;;;;4987786;28;19926;-69
2022/10/01 05:13:13;;;;;;;;;;;11.70;99.90;;;;;;4972303;28;19926;-69
2022/10/01 05:15:40;;;;;;;;;;;11.70;99.90;;;;;;5004355;28;19942;-66
2022/10/01 05:18:08;;;;;;;;;;;11.80;99.90;;;;;;4972032;28;19926;-71
2022/10/01 05:20:36;;;;;;;;;;;11.80;99.90;;;;;;4980409;28;19926;-70
2022/10/01 05:23:03;;;;;;;;;;;11.90;99.90;;;;;;4972493;28;20357;-71
2022/10/01 05:25:30;;;;;;;;;;;11.90;99.90;;;;;;4972319;28;19937;-67
2022/10/01 05:28:02;;;;;;;;;;;11.90;99.90;;;;;;4972597;28;19926;-73
2022/10/01 05:30:28;;;;;;;;;;;11.90;99.90;;;;;;4972269;28;19993;-69
2022/10/01 05:32:56;;;;;;;;;;;12.00;99.90;;;;;;4972107;28;19976;-69
2022/10/01 05:35:25;;;;;;;;;;;12.00;99.90;;;;;;4972591;28;19926;-67
2022/10/01 05:37:55;;;;;;;;;;;12.00;99.90;;;;;;4988187;28;19925;-69
2022/10/01 05:40:26;;;;;;;;;;;12.00;99.90;;;;;;4991378;28;19933;-68
2022/10/01 05:42:53;;;;;;;;;;;12.00;99.90;;;;;;4991423;28;20040;-69
2022/10/01 05:45:21;;;;;;;;;;;12.00;99.90;;;;;;4991553;28;19930;-69
2022/10/01 05:47:48;;;;;;;;;;;12.00;99.90;;;;;;4991666;28;19929;-68
2022/10/01 05:50:15;;;;;;;;;;;12.00;99.90;;;;;;4979026;28;19926;-69
2022/10/01 05:52:50;;;;;;;;;;;12.00;99.90;;;;;;4971946;28;20044;-68
2022/10/01 05:55:17;;;;;;;;;;;12.10;99.90;;;;;;4972378;28;19926;-69
2022/10/01 05:57:44;;;;;;;;;;;12.00;99.90;;;;;;4972084;28;19926;-68
2022/10/01 06:00:13;;;;;;;;;;;12.10;99.90;;;;;;4971809;28;19973;-68
2022/10/01 06:02:40;;;;;;;;;;;12.10;99.90;;;;;;4970926;28;20385;-69
2022/10/01 06:05:07;;;;;;;;;;;12.10;99.90;;;;;;4972091;28;19933;-68
2022/10/01 06:07:34;;;;;;;;;;;12.00;99.90;;;;;;4971887;28;19929;-71
2022/10/01 06:10:02;;;;;;;;;;;12.00;99.90;;;;;;4971263;28;19926;-69
2022/10/01 06:12:29;;;;;;;;;;;12.00;99.90;;;;;;4990671;28;19926;-69
2022/10/01 06:14:55;;;;;;;;;;;12.00;99.90;;;;;;4991315;28;19926;-68
2022/10/01 06:17:22;;;;;;;;;;;12.00;99.90;;;;;;4990870;28;19926;-69
2022/10/01 06:19:50;;;;;;;;;;;12.10;99.90;;;;;;4990784;28;19984;-68
2022/10/01 06:22:17;;;;;;;;;;;12.10;99.90;;;;;;4990475;28;19926;-66
2022/10/01 06:24:43;;;;;;;;;;;12.10;99.90;;;;;;4988637;28;19929;-70
2022/10/01 06:27:12;;;;;;;;;;;12.10;99.90;;;;;;4971525;28;19930;-69
2022/10/01 06:29:38;;;;;;;;;;;12.10;99.90;;;;;;4970953;28;19930;-69
2022/10/01 06:32:06;;;;;;;;;;;12.10;99.90;;;;;;4969675;28;19933;-65
2022/10/01 06:34:33;;;;;;;;;;;12.10;99.90;;;;;;4970525;28;19933;-69
2022/10/01 06:37:00;;;;;;;;;;;12.20;99.90;;;;;;4971035;28;19930;-66
2022/10/01 06:39:27;;;;;;;;;;;12.20;99.90;;;;;;4970835;28;20389;-65
2022/10/01 06:41:53;;;;;;;;;;;12.30;99.90;;;;;;4971112;28;20353;-66
2022/10/01 06:44:22;;;;;;;;;;;12.30;99.90;;;;;;4970634;28;19934;-65
2022/10/01 06:46:48;;;;;;;;;;;12.40;99.90;;;;;;4970789;28;19934;-69
2022/10/01 06:49:19;;;;;;;;;;;12.40;99.90;;;;;;4971063;28;19930;-67
2022/10/01 06:54:30;;;;;;;;;;;12.50;99.90;;;;;;4970860;28;20029;-67
2022/10/01 06:56:57;;;;;;;;;;;12.50;99.90;;;;;;4971355;28;19926;-66
2022/10/01 06:59:25;;;;;;;;;;;12.50;99.90;;;;;;4970872;28;19926;-65
2022/10/01 07:01:52;;;;;;;;;;;12.60;99.90;;;;;;4970827;28;19990;-64
2022/10/01 07:04:19;;;;;;;;;;;12.60;99.90;;;;;;4970692;28;19957;-68
2022/10/01 07:06:46;;;;;;;;;;;12.70;99.90;;;;;;4971268;28;19930;-70
2022/10/01 07:09:13;;;;;;;;;;;12.80;99.90;;;;;;4971116;28;19930;-69
2022/10/01 07:11:40;;;;;;;;;;;12.80;99.90;;;;;;4970850;28;20384;-69
2022/10/01 07:14:07;;;;;;;;;;;12.90;99.90;;;;;;5003374;28;20401;-65
2022/10/01 07:16:37;;;;;;;;;;;12.90;99.90;;;;;;5003317;28;19933;-69
2022/10/01 07:19:04;;;;;;;;;;;12.90;99.90;;;;;;4969620;28;19985;-74
2022/10/01 07:21:30;;;;;;;;;;;12.90;99.90;;;;;;4972710;28;19934;-66
2022/10/01 07:23:57;;;;;;;;;;;13.00;99.90;;;;;;4970318;28;19926;-67
2022/10/01 07:26:24;;;;;;;;;;;13.00;99.90;;;;;;4970532;28;19926;-66
2022/10/01 07:28:51;;;;;;;;;;;13.00;99.90;;;;;;4967536;28;19930;-67
2022/10/01 07:31:18;;;;;;;;;;;13.10;99.90;;;;;;4970122;28;20407;-66
2022/10/01 07:33:47;;;;;;;;;;;13.20;99.90;;;;;;4966612;28;20282;-69
2022/10/01 07:36:13;;;;;;;;;;;13.30;99.90;;;;;;4970573;28;19926;-66
2022/10/01 07:38:42;;;;;;;;;;;13.30;99.90;;;;;;4970297;28;20327;-69
2022/10/01 07:41:09;;;;;;;;;;;13.30;99.90;;;;;;4969977;28;20392;-66
2022/10/01 07:43:38;;;;;;;;;;;13.40;99.90;;;;;;4965956;28;20290;-66
2022/10/01 07:46:05;;;;;;;;;;;13.40;99.90;;;;;;4973740;28;20036;-67
2022/10/01 07:48:32;;;;;;;;;;;13.50;99.90;;;;;;4973863;28;19926;-66
2022/10/01 07:51:01;;;;;;;;;;;13.50;99.90;;;;;;4973553;28;20290;-66
2022/10/01 07:53:27;;;;;;;;;;;13.60;99.90;;;;;;4973392;28;19933;-66
2022/10/01 07:55:54;;;;;;;;;;;13.60;99.90;;;;;;4973756;28;19926;-66
2022/10/01 07:58:22;;;;;;;;;;;13.80;99.90;;;;;;4973748;28;19930;-67
2022/10/01 08:00:54;;;;;;;;;;;13.80;99.90;;;;;;4973167;28;19926;-66
2022/10/01 08:03:21;;;;;;;;;;;13.70;99.90;;;;;;4973171;28;19941;-69
2022/10/01 08:05:48;;;;;;;;;;;13.60;99.90;;;;;;4973555;28;19933;-70
2022/10/01 08:08:16;;;;;;;;;;;13.60;99.90;;;;;;4973344;28;20461;-67
2022/10/01 08:10:43;;;;;;;;;;;13.60;99.90;;;;;;4972523;28;20345;-70
2022/10/01 08:13:13;;;;;;;;;;;13.70;99.90;;;;;;4967473;28;19926;-65
2022/10/01 08:15:40;;;;;;;;;;;13.60;99.90;;;;;;4966862;28;19931;-66
2022/10/01 08:18:07;;;;;;;;;;;13.60;99.90;;;;;;4971044;28;19926;-67
2022/10/01 08:20:34;;;;;;;;;;;13.70;99.90;;;;;;4972576;28;20468;-67
2022/10/01 08:23:04;;;;;;;;;;;13.90;99.90;;;;;;4971995;28;19930;-66
2022/10/01 08:25:32;;;;;;;;;;;14.10;99.90;;;;;;4970671;28;20356;-68
2022/10/01 08:28:00;;;;;;;;;;;14.20;99.90;;;;;;4973020;28;20427;-66
2022/10/01 08:30:27;;;;;;;;;;;14.10;99.90;;;;;;4972911;28;19926;-66
2022/10/01 08:32:54;;;;;;;;;;;14.10;99.90;;;;;;4970214;28;19926;-66
2022/10/01 08:35:21;;;;;;;;;;;14.10;99.90;;;;;;4973147;28;19985;-67
2022/10/01 08:37:47;;;;;;;;;;;14.00;99.90;;;;;;4972825;28;19942;-64
2022/10/01 08:40:15;;;;;;;;;;;14.00;99.90;;;;;;4972904;28;19990;-65
2022/10/01 08:42:47;;;;;;;;;;;14.10;99.90;;;;;;4972489;28;19940;-66
2022/10/01 08:45:16;;;;;;;;;;;14.00;99.90;;;;;;4972667;28;20381;-67
2022/10/01 08:47:44;;;;;;;;;;;14.00;99.90;;;;;;4972781;28;19934;-67
2022/10/01 08:50:14;;;;;;;;;;;14.00;99.90;;;;;;4967114;28;19926;-67
2022/10/01 08:52:42;;;;;;;;;;;14.10;99.90;;;;;;4972710;28;20025;-65
2022/10/01 08:55:11;;;;;;;;;;;14.30;99.90;;;;;;4972030;28;19926;-65
2022/10/01 08:57:40;;;;;;;;;;;14.20;99.90;;;;;;4972535;28;19926;-68
2022/10/01 09:00:12;;;;;;;;;;;14.30;99.90;;;;;;4972332;28;20442;-66
2022/10/01 09:02:40;;;;;;;;;;;14.30;99.90;;;;;;4972190;28;19927;-66
2022/10/01 09:05:13;;;;;;;;;;;14.50;99.90;;;;;;4972575;28;19933;-73
2022/10/01 09:07:48;;;;;;;;;;;14.70;99.90;;;;;;4981389;28;20397;-74
2022/10/01 09:10:20;;;;;;;;;;;14.80;99.90;;;;;;4961384;28;19949;-69
2022/10/01 09:12:53;;;;;;;;;;;14.80;99.90;;;;;;4972319;28;19934;-66
2022/10/01 09:15:26;;;;;;;;;;;14.80;99.90;;;;;;4968727;28;19931;-70
2022/10/01 09:17:58;;;;;;;;;;;15.00;99.90;;;;;;4968096;28;19933;-67
2022/10/01 09:20:25;;;;;;;;;;;15.10;99.90;;;;;;4971984;28;19926;-66
2022/10/01 09:23:01;;;;;;;;;;;15.30;99.90;;;;;;4971299;28;20285;-65
2022/10/01 09:25:27;;;;;;;;;;;15.50;99.90;;;;;;4969132;28;19948;-70
2022/10/01 09:27:59;;;;;;;;;;;15.70;99.90;;;;;;4971182;28;19930;-65
2022/10/01 09:30:29;;;;;;;;;;;15.70;99.90;;;;;;4967053;28;19997;-68
2022/10/01 09:32:58;;;;;;;;;;;15.90;99.90;;;;;;4968838;28;19926;-67
2022/10/01 09:35:33;;;;;;;;;;;16.00;99.90;;;;;;4969550;28;19926;-66
2022/10/01 09:38:02;;;;;;;;;;;16.30;99.90;;;;;;4965383;28;20460;-68
2022/10/01 09:40:34;;;;;;;;;;;16.50;99.90;;;;;;4971495;28;19930;-69
2022/10/01 09:43:02;;;;;;;;;;;16.60;99.90;;;;;;4970910;28;20016;-67
2022/10/01 09:45:30;;;;;;;;;;;16.70;99.90;;;;;;4969411;28;19926;-66
2022/10/01 09:47:58;;;;;;;;;;;16.70;99.90;;;;;;4971293;28;19930;-66
2022/10/01 09:50:29;;;;;;;;;;;16.70;99.90;;;;;;4973654;28;19926;-68
2022/10/01 09:52:59;;;;;;;;;;;16.70;99.90;;;;;;4967133;28;19933;-66
2022/10/01 09:55:29;;;;;;;;;;;16.80;99.90;;;;;;4971639;28;19926;-68
2022/10/01 09:57:59;;;;;;;;;;;17.00;99.90;;;;;;4969642;28;20444;-67
2022/10/01 10:00:27;;;;;;;;;;;17.10;99.90;;;;;;4971131;28;19976;-66
2022/10/01 10:02:55;;;;;;;;;;;17.30;99.90;;;;;;4968884;28;19926;-67
2022/10/01 10:05:23;;;;;;;;;;;17.40;99.90;;;;;;4971677;28;20085;-67
2022/10/01 10:07:51;;;;;;;;;;;17.40;99.90;;;;;;4971236;28;19934;-67
2022/10/01 10:10:19;;;;;;;;;;;17.50;99.90;;;;;;4971199;28;19977;-67
2022/10/01 10:12:46;;;;;;;;;;;17.70;99.90;;;;;;4971257;28;19930;-66
2022/10/01 10:15:16;;;;;;;;;;;17.90;99.90;;;;;;4969182;28;19934;-67
2022/10/01 10:17:45;;;;;;;;;;;18.10;99.90;;;;;;4971615;28;19937;-70
2022/10/01 10:20:19;;;;;;;;;;;17.90;99.90;;;;;;4966332;28;19926;-67
2022/10/01 10:22:46;;;;;;;;;;;17.80;99.90;;;;;;4971034;28;20300;-64
2022/10/01 10:25:17;;;;;;;;;;;17.50;99.90;;;;;;4972403;28;19962;-68
2022/10/01 10:27:51;;;;;;;;;;;17.30;99.90;;;;;;4970965;28;19984;-70
2022/10/01 10:30:17;;;;;;;;;;;17.30;99.90;;;;;;4967415;28;20388;-71
2022/10/01 10:32:46;;;;;;;;;;;17.70;99.90;;;;;;4972472;28;19930;-67
2022/10/01 10:35:17;;;;;;;;;;;18.30;99.90;;;;;;4969455;28;19930;-66
2022/10/01 10:37:45;;;;;;;;;;;18.50;99.90;;;;;;4979022;28;19934;-68
2022/10/01 10:40:16;;;;;;;;;;;18.70;99.90;;;;;;4964607;28;19934;-68
2022/10/01 10:42:46;;;;;;;;;;;18.60;99.90;;;;;;4966039;28;19930;-69
2022/10/01 10:45:15;;;;;;;;;;;19.10;99.90;;;;;;4966311;28;19934;-68
2022/10/01 10:47:44;;;;;;;;;;;19.30;99.90;;;;;;4970024;28;19930;-68
2022/10/01 10:50:21;;;;;;;;;;;19.40;99.90;;;;;;4965714;28;19926;-69
2022/10/01 10:52:48;;;;;;;;;;;19.60;99.90;;;;;;4970685;28;20004;-68
2022/10/01 10:55:20;;;;;;;;;;;19.20;99.90;;;;;;4975994;28;19926;-70
2022/10/01 10:57:47;;;;;;;;;;;19.30;99.90;;;;;;4970288;28;19936;-69
2022/10/01 11:00:15;;;;;;;;;;;19.30;99.90;;;;;;4971135;28;19926;-69
2022/10/01 11:02:49;;;;;;;;;;;19.50;99.90;;;;;;4971336;28;19926;-69
2022/10/01 11:05:19;;;;;;;;;;;20.00;99.90;;;;;;4966443;28;20336;-68
2022/10/01 11:07:47;;;;;;;;;;;19.80;99.90;;;;;;4969421;28;19926;-68
2022/10/01 11:10:21;;;;;;;;;;;18.90;99.90;;;;;;4968039;28;19934;-68
2022/10/01 11:12:56;;;;;;;;;;;18.80;99.90;;;;;;4967922;28;19973;-69
2022/10/01 11:15:33;;;;;;;;;;;21.90;99.90;;;;;;4969178;28;20308;-69
2022/10/01 11:18:12;;;;;;;;;;;21.20;99.90;;;;;;4968257;28;20402;-70
2022/10/01 11:20:49;;;;;;;;;;;23.30;99.90;;;;;;4971241;28;19926;-69
2022/10/01 11:23:26;;;;;;;;;;;24.50;99.90;;;;;;4985374;28;19953;-68
2022/10/01 11:25:58;;;;;;;;;;;26.70;99.90;;;;;;4973147;28;19934;-69
2022/10/01 11:28:32;;;;;;;;;;;26.90;99.90;;;;;;4973135;28;19981;-69
2022/10/01 11:31:05;;;;;;;;;;;25.80;99.90;;;;;;4965870;28;19937;-69
2022/10/01 11:33:37;;;;;;;;;;;24.50;99.90;;;;;;4973263;28;20049;-67
2022/10/01 11:36:08;;;;;;;;;;;23.80;99.90;;;;;;4969774;28;19934;-67
2022/10/01 11:38:45;;;;;;;;;;;21.70;99.90;;;;;;4972501;28;19981;-67
2022/10/01 11:41:17;;;;;;;;;;;21.50;99.90;;;;;;4965422;28;20409;-70
2022/10/01 11:43:47;;;;;;;;;;;20.30;99.90;;;;;;4966138;28;19926;-68
2022/10/01 11:46:16;;;;;;;;;;;19.40;99.90;;;;;;4970523;28;20349;-71
2022/10/01 11:48:45;;;;;;;;;;;21.70;99.90;;;;;;4972637;28;20331;-69
2022/10/01 11:51:15;;;;;;;;;;;24.30;99.90;;;;;;4968315;28;19926;-69
2022/10/01 11:53:44;;;;;;;;;;;22.40;99.90;;;;;;4972744;28;20066;-70
2022/10/01 11:59:01;;;;;;;;;;;21.80;99.90;;;;;;4965335;28;19922;-69
2022/10/01 12:01:32;;;;;;;;;;;20.70;99.90;;;;;;4972743;28;19933;-69
2022/10/01 12:04:02;;;;;;;;;;;24.20;99.90;;;;;;4972028;28;20484;-69
2022/10/01 12:06:32;;;;;;;;;;;25.90;99.90;;;;;;4972365;28;19927;-70
2022/10/01 12:09:02;;;;;;;;;;;25.90;99.90;;;;;;4972154;28;19933;-71
2022/10/01 12:11:31;;;;;;;;;;;25.80;99.90;;;;;;4972209;28;20009;-68
2022/10/01 12:13:59;;;;;;;;;;;26.50;99.90;;;;;;4968081;28;19930;-69
2022/10/01 12:16:29;;;;;;;;;;;26.40;99.90;;;;;;4961550;28;19926;-68
2022/10/01 12:18:58;;;;;;;;;;;25.80;99.90;;;;;;4961352;28;19933;-67
2022/10/01 12:21:27;;;;;;;;;;;24.40;99.90;;;;;;4960768;28;19961;-68
2022/10/01 12:23:58;;;;;;;;;;;23.30;99.90;;;;;;4984784;28;19930;-67
2022/10/01 12:26:29;;;;;;;;;;;24.20;99.90;;;;;;4968101;28;19933;-68
2022/10/01 12:28:58;;;;;;;;;;;24.50;99.90;;;;;;4970690;28;19926;-69
2022/10/01 12:31:27;;;;;;;;;;;23.50;99.90;;;;;;4968140;28;20028;-69
2022/10/01 12:34:01;;;;;;;;;;;25.40;99.90;;;;;;4969840;28;19930;-68
2022/10/01 12:36:35;;;;;;;;;;;23.10;99.90;;;;;;4982824;28;19941;-71
2022/10/01 12:39:16;;;;;;;;;;;22.10;99.90;;;;;;4968854;28;19933;-67
2022/10/01 12:41:49;;;;;;;;;;;22.30;99.90;;;;;;4967818;28;19926;-70
2022/10/01 12:44:27;;;;;;;;;;;22.20;99.90;;;;;;4970734;28;19926;-68
2022/10/01 12:47:00;;;;;;;;;;;22.60;99.90;;;;;;4963538;28;19930;-68
2022/10/01 12:49:30;;;;;;;;;;;22.60;99.90;;;;;;4969478;28;19927;-68
2022/10/01 12:51:59;;;;;;;;;;;23.10;99.90;;;;;;4972690;28;19930;-67
2022/10/01 12:54:44;;;;;;;;;;;20.70;99.90;;;;;;4972946;28;19976;-67
2022/10/01 12:57:17;;;;;;;;;;;20.00;99.90;;;;;;4973006;28;19930;-68
2022/10/01 12:59:52;;;;;;;;;;;19.60;99.90;;;;;;4972586;28;19926;-68
2022/10/01 13:02:30;;;;;;;;;;;20.50;99.90;;;;;;4972329;28;19926;-68
2022/10/01 13:05:09;;;;;;;;;;;20.10;99.90;;;;;;4970037;28;19926;-68
2022/10/01 13:07:41;;;;;;;;;;;21.20;99.90;;;;;;4969833;28;19926;-68
2022/10/01 13:10:18;;;;;;;;;;;21.30;99.90;;;;;;4972896;28;19980;-70
2022/10/01 13:12:53;;;;;;;;;;;21.40;99.90;;;;;;4973334;28;19981;-71
2022/10/01 13:15:22;;;;;;;;;;;22.70;99.90;;;;;;4970228;28;19957;-69
2022/10/01 13:17:51;;;;;;;;;;;24.30;99.90;;;;;;4972841;28;19930;-67
2022/10/01 13:20:22;;;;;;;;;;;23.60;99.90;;;;;;4971775;28;19926;-70
2022/10/01 13:22:51;;;;;;;;;;;22.60;99.90;;;;;;4972361;28;20009;-69
2022/10/01 13:25:28;;;;;;;;;;;21.80;99.90;;;;;;4972359;28;20290;-67
2022/10/01 13:27:56;;;;;;;;;;;21.60;99.90;;;;;;4971927;28;19936;-67
2022/10/01 13:30:24;;;;;;;;;;;21.30;99.90;;;;;;4972159;28;19930;-69
2022/10/01 13:32:52;;;;;;;;;;;22.60;99.90;;;;;;4971735;28;19926;-68
2022/10/01 13:35:24;;;;;;;;;;;22.60;99.90;;;;;;4972321;28;19930;-68
2022/10/01 13:37:51;;;;;;;;;;;23.10;99.90;;;;;;4971990;28;19926;-70
2022/10/01 13:40:23;;;;;;;;;;;22.80;99.90;;;;;;4970154;28;19937;-67
2022/10/01 13:42:52;;;;;;;;;;;23.00;99.90;;;;;;4969131;28;19933;-69
2022/10/01 13:45:25;;;;;;;;;;;22.40;99.90;;;;;;4970251;28;20390;-67
2022/10/01 13:47:52;;;;;;;;;;;21.40;99.90;;;;;;4970342;28;19933;-68
2022/10/01 13:50:22;;;;;;;;;;;21.40;99.90;;;;;;4970330;28;20329;-67
2022/10/01 13:52:49;;;;;;;;;;;21.10;99.90;;;;;;4970920;28;19926;-68
2022/10/01 13:55:24;;;;;;;;;;;20.90;99.90;;;;;;4971873;28;19927;-70
2022/10/01 13:58:01;;;;;;;;;;;21.90;99.90;;;;;;4971761;28;19930;-68
2022/10/01 14:00:27;;;;;;;;;;;22.10;99.90;;;;;;4971609;28;19926;-68
2022/10/01 14:02:59;;;;;;;;;;;22.50;99.90;;;;;;4971555;28;19970;-69
2022/10/01 14:05:29;;;;;;;;;;;22.00;99.90;;;;;;4971718;28;19933;-67
2022/10/01 14:07:58;;;;;;;;;;;21.00;99.90;;;;;;4971691;28;19926;-67
2022/10/01 14:10:31;;;;;;;;;;;20.00;99.90;;;;;;4974474;28;19934;-67
2022/10/01 14:15:59;;;;;;;;;;;19.70;99.90;;;;;;4991255;28;19933;-67
2022/10/01 14:18:28;;;;;;;;;;;20.50;99.90;;;;;;4990865;28;20021;-69
2022/10/01 14:20:59;;;;;;;;;;;21.70;99.90;;;;;;4990514;28;19930;-68
2022/10/01 14:23:31;;;;;;;;;;;22.90;99.90;;;;;;4990473;28;19949;-71
2022/10/01 14:26:01;;;;;;;;;;;23.00;99.90;;;;;;4990894;28;19926;-70
2022/10/01 14:28:50;;;;;;;;;;;22.50;99.90;;;;;;4990937;28;19926;-68
2022/10/01 14:31:22;;;;;;;;;;;21.20;99.90;;;;;;4990725;28;19926;-68
2022/10/01 14:34:07;;;;;;;;;;;19.90;99.90;;;;;;4990494;28;20041;-69
2022/10/01 14:36:35;;;;;;;;;;;19.30;99.90;;;;;;4990656;28;19980;-67
2022/10/01 14:39:03;;;;;;;;;;;19.10;99.90;;;;;;4990364;28;20008;-67
2022/10/01 14:41:34;;;;;;;;;;;19.50;99.90;;;;;;4990812;28;20392;-67
2022/10/01 14:44:02;;;;;;;;;;;20.10;99.90;;;;;;4990163;28;20416;-67
2022/10/01 14:46:29;;;;;;;;;;;20.80;99.90;;;;;;4991146;28;19926;-67
2022/10/01 14:48:56;;;;;;;;;;;21.60;99.90;;;;;;4990710;28;19929;-68
2022/10/01 14:51:26;;;;;;;;;;;22.60;99.90;;;;;;4990810;28;19930;-71
2022/10/01 14:53:53;;;;;;;;;;;22.80;99.90;;;;;;4992083;28;20002;-67
2022/10/01 14:56:21;;;;;;;;;;;23.30;99.90;;;;;;4994716;28;19926;-68
2022/10/01 14:58:52;;;;;;;;;;;23.30;99.90;;;;;;4994556;28;19926;-70
2022/10/01 15:01:21;;;;;;;;;;;23.40;99.90;;;;;;4995166;28;19965;-67
2022/10/01 15:03:48;;;;;;;;;;;23.40;99.90;;;;;;4994328;28;19933;-67
2022/10/01 15:06:16;;;;;;;;;;;24.00;99.90;;;;;;4994576;28;19926;-67
2022/10/01 15:08:43;;;;;;;;;;;24.60;99.90;;;;;;4994532;28;19925;-67
2022/10/01 15:11:12;;;;;;;;;;;24.10;99.90;;;;;;4984841;28;19926;-68
2022/10/01 15:13:40;;;;;;;;;;;23.60;99.90;;;;;;4974706;28;19930;-67
2022/10/01 15:16:10;;;;;;;;;;;23.80;99.90;;;;;;4975088;28;19926;-68
2022/10/01 15:18:40;;;;;;;;;;;23.50;99.90;;;;;;5006812;28;19926;-69
2022/10/01 15:21:08;;;;;;;;;;;23.30;99.90;;;;;;5007201;28;19926;-68
2022/10/01 15:23:36;;;;;;;;;;;22.10;99.90;;;;;;4974677;28;19930;-65
2022/10/01 15:26:04;;;;;;;;;;;21.30;99.90;;;;;;5008305;28;19976;-68
2022/10/01 15:28:32;;;;;;;;;;;21.20;99.90;;;;;;4974530;28;19926;-68
2022/10/01 15:31:00;;;;;;;;;;;21.50;99.90;;;;;;4974463;28;19926;-69
2022/10/01 15:33:27;;;;;;;;;;;21.70;99.90;;;;;;5006928;28;19926;-67
2022/10/01 15:35:57;;;;;;;;;;;20.90;99.90;;;;;;4974742;28;20398;-68
2022/10/01 15:38:25;;;;;;;;;;;20.80;99.90;;;;;;5006576;28;19980;-68
2022/10/01 15:40:54;;;;;;;;;;;21.60;99.90;;;;;;4974029;28;19980;-68
2022/10/01 15:43:24;;;;;;;;;;;22.20;99.90;;;;;;5006953;28;20002;-67
2022/10/01 15:46:06;;;;;;;;;;;22.40;99.90;;;;;;5007330;28;20025;-67
2022/10/01 15:48:33;;;;;;;;;;;22.10;99.90;;;;;;4974555;28;20341;-68
2022/10/01 15:51:02;;;;;;;;;;;21.90;99.90;;;;;;4973758;28;19934;-67
2022/10/01 15:53:29;;;;;;;;;;;21.30;99.90;;;;;;4974137;28;20301;-67
2022/10/01 15:55:58;;;;;;;;;;;20.40;99.90;;;;;;4974466;28;19930;-67
2022/10/01 15:58:26;;;;;;;;;;;20.00;99.90;;;;;;4973991;28;19934;-68
2022/10/01 16:00:56;;;;;;;;;;;20.00;99.90;;;;;;4973657;28;19926;-67
2022/10/01 16:03:24;;;;;;;;;;;19.60;99.90;;;;;;5006710;28;20312;-68
2022/10/01 16:05:53;;;;;;;;;;;19.30;99.90;;;;;;5006521;28;19927;-67
2022/10/01 16:08:24;;;;;;;;;;;18.90;99.90;;;;;;5006304;28;19926;-67
2022/10/01 16:11:05;;;;;;;;;;;18.70;99.90;;;;;;4980142;28;19933;-68
2022/10/01 16:13:37;;;;;;;;;;;18.40;99.90;;;;;;4993262;28;19933;-68
2022/10/01 16:16:06;;;;;;;;;;;18.30;99.90;;;;;;4993120;28;19926;-65
2022/10/01 16:18:33;;;;;;;;;;;18.00;99.90;;;;;;4983047;28;19933;-67
2022/10/01 16:21:00;;;;;;;;;;;17.90;99.90;;;;;;4972919;28;19948;-68
2022/10/01 16:23:35;;;;;;;;;;;17.70;99.90;;;;;;4973152;28;19937;-69
2022/10/01 16:26:03;;;;;;;;;;;17.50;99.90;;;;;;4973746;28;20306;-70
2022/10/01 16:28:32;;;;;;;;;;;17.30;99.90;;;;;;4973722;28;19926;-67
2022/10/01 16:30:59;;;;;;;;;;;17.30;99.90;;;;;;4972951;28;19926;-68
2022/10/01 16:33:26;;;;;;;;;;;17.20;99.90;;;;;;4973181;28;19934;-67
2022/10/01 16:35:54;;;;;;;;;;;17.00;99.90;;;;;;4973585;28;20316;-67
2022/10/01 16:38:21;;;;;;;;;;;17.00;99.90;;;;;;4973508;28;19929;-66
2022/10/01 16:40:49;;;;;;;;;;;16.80;99.90;;;;;;4973324;28;19926;-66
2022/10/01 16:43:17;;;;;;;;;;;16.70;99.90;;;;;;4974040;28;19930;-66
2022/10/01 16:45:44;;;;;;;;;;;16.70;99.90;;;;;;4974077;28;19926;-66
2022/10/01 16:48:12;;;;;;;;;;;16.60;99.90;;;;;;4974323;28;19926;-66
2022/10/01 16:50:40;;;;;;;;;;;16.50;99.90;;;;;;4973638;28;19925;-66
2022/10/01 16:53:08;;;;;;;;;;;16.50;99.90;;;;;;4973916;28;19989;-66
2022/10/01 16:55:36;;;;;;;;;;;16.50;99.90;;;;;;4973771;28;19932;-66
2022/10/01 16:58:05;;;;;;;;;;;16.40;99.90;;;;;;4973596;28;20360;-66
2022/10/01 17:00:32;;;;;;;;;;;16.40;99.90;;;;;;4973558;28;19933;-67
2022/10/01 17:02:59;;;;;;;;;;;16.30;99.90;;;;;;4973681;28;19926;-66
2022/10/01 17:05:28;;;;;;;;;;;16.20;99.90;;;;;;4973186;28;20078;-67
2022/10/01 17:07:56;;;;;;;;;;;16.10;99.90;;;;;;4973932;28;19926;-67
2022/10/01 17:10:23;;;;;;;;;;;16.00;99.90;;;;;;4973527;28;19930;-67
2022/10/01 17:12:50;;;;;;;;;;;15.90;99.90;;;;;;4973461;28;19926;-67
2022/10/01 17:15:21;;;;;;;;;;;15.80;99.90;;;;;;4973433;28;19930;-66
2022/10/01 17:17:47;;;;;;;;;;;15.70;99.90;;;;;;4972827;28;19926;-66
2022/10/01 17:20:14;;;;;;;;;;;15.70;99.90;;;;;;4973043;28;19934;-66
2022/10/01 17:22:42;;;;;;;;;;;15.60;99.90;;;;;;4972525;28;20336;-65
2022/10/01 17:25:13;;;;;;;;;;;15.50;99.90;;;;;;4973027;28;20374;-66
2022/10/01 17:27:40;;;;;;;;;;;15.50;99.90;;;;;;4973278;28;19933;-66
2022/10/01 17:30:07;;;;;;;;;;;15.40;99.90;;;;;;4972829;28;19937;-64
2022/10/01 17:32:38;;;;;;;;;;;15.30;99.90;;;;;;4973088;28;19930;-64
2022/10/01 17:35:05;;;;;;;;;;;15.30;99.90;;;;;;4953718;29;19927;-68